createdAt,value
2018-05-14T00:00:04.704Z,10.63
2018-05-14T00:02:32.144Z,12.07
2018-05-14T00:04:59.577Z,9.40
2018-05-14T00:07:27.848Z,10.87
2018-05-14T00:09:56.052Z,10.77
2018-05-14T00:12:23.504Z,10.37
2018-05-14T00:14:50.959Z,10.77
2018-05-14T00:17:19.176Z,10.20
2018-05-14T00:19:46.620Z,12.50
2018-05-14T00:22:14.069Z,11.43
2018-05-14T00:24:41.507Z,11.87
2018-05-14T00:27:08.949Z,13.90
2018-05-14T00:29:37.159Z,12.57
2018-05-14T00:32:05.434Z,11.03
2018-05-14T00:34:32.884Z,12.60
2018-05-14T00:37:01.279Z,9.93
2018-05-14T00:39:28.718Z,12.97
2018-05-14T00:41:56.172Z,13.20
2018-05-14T00:44:23.613Z,12.37
2018-05-14T00:46:51.824Z,11.80
2018-05-14T00:49:19.351Z,12.10
2018-05-14T00:51:46.711Z,15.17
2018-05-14T00:54:14.160Z,12.80
2018-05-14T00:56:42.362Z,14.07
2018-05-14T00:59:09.810Z,14.63
2018-05-14T01:01:37.274Z,16.73
2018-05-14T01:04:04.702Z,15.77
2018-05-14T01:06:32.946Z,14.93
2018-05-14T01:09:00.465Z,18.30
2018-05-14T01:11:27.881Z,18.63
2018-05-14T01:13:56.102Z,18.40
2018-05-14T01:16:23.554Z,16.10
2018-05-14T01:18:51.037Z,19.77
2018-05-14T01:21:18.471Z,20.47
2018-05-14T01:23:45.939Z,21.83
2018-05-14T01:26:13.391Z,21.40
2018-05-14T01:28:40.853Z,23.77
2018-05-14T01:31:08.303Z,23.33
2018-05-14T01:33:35.755Z,24.50
2018-05-14T01:36:03.211Z,27.43
2018-05-14T01:38:30.644Z,24.90
2018-05-14T01:40:58.860Z,24.30
2018-05-14T01:43:26.303Z,21.67
2018-05-14T01:45:53.747Z,24.87
2018-05-14T01:48:21.184Z,25.50
2018-05-14T01:50:49.401Z,27.67
2018-05-14T01:53:16.848Z,24.03
2018-05-14T01:55:44.297Z,27.23
2018-05-14T01:58:11.747Z,23.13
2018-05-14T02:00:39.187Z,26.57
2018-05-14T02:03:07.409Z,20.63
2018-05-14T02:05:34.877Z,26.77
2018-05-14T02:08:02.339Z,21.67
2018-05-14T02:10:29.794Z,20.83
2018-05-14T02:12:57.251Z,22.90
2018-05-14T02:15:24.688Z,24.00
2018-05-14T02:17:52.151Z,22.20
2018-05-14T02:20:19.590Z,22.10
2018-05-14T02:22:47.036Z,16.43
2018-05-14T02:25:14.490Z,19.12
2018-05-14T02:27:41.935Z,15.37
2018-05-14T02:30:10.156Z,16.23
2018-05-14T02:32:37.611Z,15.63
2018-05-14T02:35:05.093Z,15.40
2018-05-14T02:37:32.515Z,13.20
2018-05-14T02:39:59.971Z,14.57
2018-05-14T02:42:27.415Z,14.80
2018-05-14T02:44:54.864Z,12.43
2018-05-14T02:47:22.304Z,11.95
2018-05-14T02:49:50.520Z,13.47
2018-05-14T02:52:17.962Z,10.90
2018-05-14T02:54:45.401Z,12.07
2018-05-14T02:57:14.523Z,9.67
2018-05-14T02:59:41.973Z,9.20
2018-05-14T03:02:09.417Z,10.97
2018-05-14T03:04:37.616Z,10.17
2018-05-14T03:07:05.113Z,8.27
2018-05-14T03:09:32.489Z,8.05
2018-05-14T03:12:00.693Z,8.53
2018-05-14T03:14:28.123Z,7.70
2018-05-14T03:16:56.331Z,7.50
2018-05-14T03:19:24.692Z,7.57
2018-05-14T03:21:52.908Z,8.63
2018-05-14T03:24:20.328Z,10.63
2018-05-14T03:26:47.763Z,11.40
2018-05-14T03:29:15.987Z,10.40
2018-05-14T03:31:43.427Z,11.52
2018-05-14T03:34:10.868Z,11.83
2018-05-14T03:36:39.075Z,10.70
2018-05-14T03:39:06.514Z,10.17
2018-05-14T03:41:33.966Z,13.40
2018-05-14T03:44:01.399Z,10.33
2018-05-14T03:46:29.601Z,12.23
2018-05-14T03:48:57.030Z,14.47
2018-05-14T03:51:25.228Z,10.83
2018-05-14T03:53:52.676Z,12.55
2018-05-14T03:56:20.896Z,11.73
2018-05-14T03:59:00.322Z,13.80
2018-05-14T04:01:39.703Z,13.60
2018-05-14T04:04:19.070Z,14.50
2018-05-14T04:06:46.515Z,14.50
2018-05-14T04:09:14.721Z,16.10
2018-05-14T04:11:42.176Z,14.80
2018-05-14T04:14:09.618Z,14.10
2018-05-14T04:16:37.116Z,16.30
2018-05-14T04:19:05.266Z,19.83
2018-05-14T04:21:32.707Z,17.50
2018-05-14T04:24:01.063Z,22.10
2018-05-14T04:26:29.268Z,17.20
2018-05-14T04:28:56.707Z,22.30
2018-05-14T04:31:24.919Z,20.73
2018-05-14T04:33:52.358Z,21.00
2018-05-14T04:36:19.801Z,17.10
2018-05-14T04:38:47.239Z,15.83
2018-05-14T04:41:14.851Z,18.97
2018-05-14T04:43:42.286Z,25.03
2018-05-14T04:46:09.731Z,16.27
2018-05-14T04:48:37.184Z,20.97
2018-05-14T04:51:05.385Z,16.07
2018-05-14T04:53:32.832Z,18.00
2018-05-14T04:56:00.270Z,21.83
2018-05-14T04:58:28.475Z,14.17
2018-05-14T05:00:55.935Z,16.83
2018-05-14T05:03:23.380Z,17.70
2018-05-14T05:05:50.820Z,15.87
2018-05-14T05:08:19.440Z,15.60
2018-05-14T05:10:46.872Z,15.23
2018-05-14T05:13:14.330Z,15.23
2018-05-14T05:15:41.767Z,13.20
2018-05-14T05:18:10.055Z,13.90
2018-05-14T05:20:37.498Z,12.63
2018-05-14T05:23:05.708Z,15.30
2018-05-14T05:25:33.164Z,12.17
2018-05-14T05:28:01.366Z,14.07
2018-05-14T05:30:30.316Z,15.00
2018-05-14T05:32:57.772Z,14.63
2018-05-14T05:35:25.251Z,16.53
2018-05-14T05:37:52.687Z,12.97
2018-05-14T05:40:20.887Z,13.70
2018-05-14T05:42:48.344Z,13.75
2018-05-14T05:45:22.373Z,14.03
2018-05-14T05:47:49.815Z,13.03
2018-05-14T05:50:17.264Z,14.33
2018-05-14T05:52:44.706Z,15.33
2018-05-14T05:55:12.144Z,16.33
2018-05-14T05:57:40.368Z,17.27
2018-05-14T06:00:07.813Z,16.83
2018-05-14T06:02:35.247Z,14.67
2018-05-14T06:05:02.699Z,13.30
2018-05-14T06:07:30.909Z,13.77
2018-05-14T06:09:58.342Z,17.43
2018-05-14T06:12:25.779Z,16.60
2018-05-14T06:14:53.975Z,16.17
2018-05-14T06:17:21.425Z,13.13
2018-05-14T06:19:48.868Z,15.37
2018-05-14T06:22:17.158Z,12.50
2018-05-14T06:24:45.272Z,13.30
2018-05-14T06:27:12.726Z,18.07
2018-05-14T06:29:40.162Z,13.27
2018-05-14T06:32:07.607Z,14.87
2018-05-14T06:34:45.060Z,14.33
2018-05-14T06:37:12.508Z,14.02
2018-05-14T06:39:41.477Z,15.47
2018-05-14T06:42:08.920Z,13.30
2018-05-14T06:44:36.494Z,15.77
2018-05-14T06:47:05.350Z,16.23
2018-05-14T06:49:32.785Z,17.15
2018-05-14T06:52:00.992Z,12.47
2018-05-14T06:54:28.427Z,13.10
2018-05-14T06:56:56.628Z,12.50
2018-05-14T06:59:24.071Z,11.70
2018-05-14T07:01:51.525Z,12.97
2018-05-14T07:04:19.732Z,10.50
2018-05-14T07:06:47.176Z,10.80
2018-05-14T07:09:14.612Z,11.47
2018-05-14T07:11:42.044Z,14.07
2018-05-14T07:14:09.499Z,11.03
2018-05-14T07:16:36.920Z,12.83
2018-05-14T07:19:04.363Z,13.70
2018-05-14T07:21:31.791Z,12.73
2018-05-14T07:24:00.004Z,17.20
2018-05-14T07:26:27.442Z,16.20
2018-05-14T07:28:54.895Z,15.50
2018-05-14T07:31:22.333Z,16.77
2018-05-14T07:33:50.543Z,16.33
2018-05-14T07:36:18.047Z,13.07
2018-05-14T07:38:45.437Z,14.10
2018-05-14T07:41:12.879Z,11.40
2018-05-14T07:43:41.084Z,11.55
2018-05-14T07:46:08.548Z,11.33
2018-05-14T07:48:36.731Z,10.03
2018-05-14T07:51:04.164Z,9.70
2018-05-14T07:53:31.611Z,10.53
2018-05-14T07:55:59.052Z,10.80
2018-05-14T08:01:20.032Z,9.97
2018-05-14T08:03:48.327Z,10.40
2018-05-14T08:06:15.772Z,11.73
2018-05-14T08:08:43.216Z,9.50
2018-05-14T08:11:10.672Z,9.10
2018-05-14T08:13:38.119Z,10.10
2018-05-14T08:16:05.540Z,9.63
2018-05-14T08:18:33.755Z,11.17
2018-05-14T08:21:01.198Z,10.23
2018-05-14T08:23:28.712Z,8.80
2018-05-14T08:25:56.860Z,10.23
2018-05-14T08:28:24.317Z,9.37
2018-05-14T08:30:51.771Z,10.80
2018-05-14T08:33:19.206Z,13.20
2018-05-14T08:35:46.667Z,30.40
2018-05-14T08:38:14.095Z,10.63
2018-05-14T08:40:42.312Z,15.60
2018-05-14T08:43:09.737Z,11.73
2018-05-14T08:45:37.186Z,9.23
2018-05-14T08:48:05.498Z,14.33
2018-05-14T08:50:32.839Z,10.30
2018-05-14T08:53:00.266Z,10.60
2018-05-14T08:55:28.483Z,8.90
2018-05-14T08:57:55.933Z,10.37
2018-05-14T09:00:23.383Z,12.85
2018-05-14T09:02:50.824Z,12.20
2018-05-14T09:05:19.038Z,12.70
2018-05-14T09:07:46.467Z,10.57
2018-05-14T09:10:13.914Z,9.93
2018-05-14T09:12:42.111Z,11.13
2018-05-14T09:15:09.567Z,10.37
2018-05-14T09:17:36.994Z,12.70
2018-05-14T09:20:05.220Z,13.50
2018-05-14T09:22:32.679Z,14.35
2018-05-14T09:25:00.112Z,12.17
2018-05-14T09:27:27.565Z,11.07
2018-05-14T09:29:55.012Z,11.20
2018-05-14T09:32:22.462Z,10.93
2018-05-14T09:34:50.666Z,11.10
2018-05-14T09:37:18.191Z,11.00
2018-05-14T09:39:45.542Z,14.73
2018-05-14T09:42:13.748Z,13.10
2018-05-14T09:44:41.201Z,15.50
2018-05-14T09:47:08.652Z,13.03
2018-05-14T09:49:36.083Z,16.50
2018-05-14T09:52:04.319Z,13.97
2018-05-14T09:54:32.688Z,14.00
2018-05-14T09:57:00.132Z,16.60
2018-05-14T09:59:27.576Z,14.03
2018-05-14T10:01:55.019Z,14.23
2018-05-14T10:04:23.238Z,12.30
2018-05-14T10:06:50.679Z,13.67
2018-05-14T10:09:18.118Z,12.77
2018-05-14T10:11:45.570Z,13.90
2018-05-14T10:14:13.021Z,15.77
2018-05-14T10:16:42.164Z,15.07
2018-05-14T10:19:09.605Z,18.30
2018-05-14T10:21:37.038Z,16.13
2018-05-14T10:24:04.476Z,15.77
2018-05-14T10:26:32.702Z,16.10
2018-05-14T10:29:00.145Z,17.60
2018-05-14T10:31:27.593Z,19.03
2018-05-14T10:33:55.025Z,16.10
2018-05-14T10:36:23.240Z,18.63
2018-05-14T10:38:51.603Z,17.40
2018-05-14T10:41:19.048Z,16.67
2018-05-14T10:43:47.255Z,20.83
2018-05-14T10:46:14.716Z,15.80
2018-05-14T10:48:42.152Z,16.87
2018-05-14T10:51:09.594Z,16.35
2018-05-14T10:53:37.811Z,22.80
2018-05-14T10:56:05.262Z,18.57
2018-05-14T10:58:32.775Z,17.93
2018-05-14T11:01:00.135Z,17.77
2018-05-14T11:03:28.343Z,18.10
2018-05-14T11:05:55.783Z,18.53
2018-05-14T11:08:23.225Z,20.53
2018-05-14T11:10:51.448Z,20.63
2018-05-14T11:13:18.902Z,21.00
2018-05-14T11:15:46.373Z,19.77
2018-05-14T11:18:13.815Z,16.57
2018-05-14T11:20:41.258Z,18.77
2018-05-14T11:23:08.701Z,19.47
2018-05-14T11:25:36.152Z,16.50
2018-05-14T11:28:03.597Z,16.57
2018-05-14T11:30:31.813Z,19.60
2018-05-14T11:32:59.259Z,15.43
2018-05-14T11:35:26.740Z,16.80
2018-05-14T11:37:54.143Z,17.80
2018-05-14T11:40:22.367Z,19.70
2018-05-14T11:42:49.812Z,19.20
2018-05-14T11:45:17.260Z,17.13
2018-05-14T11:47:44.715Z,16.53
2018-05-14T11:50:12.162Z,18.83
2018-05-14T11:52:39.599Z,21.80
2018-05-14T11:55:07.809Z,14.83
2018-05-14T11:57:35.255Z,19.40
2018-05-14T12:00:02.734Z,18.20
2018-05-14T12:02:30.211Z,18.50
2018-05-14T12:04:57.649Z,16.90
2018-05-14T12:07:25.094Z,17.17
2018-05-14T12:09:52.531Z,19.15
2018-05-14T12:12:20.104Z,20.27
2018-05-14T12:14:47.570Z,19.20
2018-05-14T12:17:15.046Z,19.10
2018-05-14T12:19:42.493Z,18.50
2018-05-14T12:22:09.934Z,22.33
2018-05-14T12:24:37.379Z,22.87
2018-05-14T12:27:04.822Z,24.67
2018-05-14T12:29:33.027Z,23.20
2018-05-14T12:32:00.553Z,23.87
2018-05-14T12:34:27.966Z,23.87
2018-05-14T12:36:55.423Z,26.33
2018-05-14T12:39:22.864Z,24.30
2018-05-14T12:41:50.319Z,23.98
2018-05-14T12:44:17.804Z,21.93
2018-05-14T12:46:45.262Z,20.53
2018-05-14T12:49:12.710Z,20.10
2018-05-14T12:51:40.147Z,25.70
2018-05-14T12:54:07.585Z,21.63
2018-05-14T12:56:35.021Z,22.70
2018-05-14T12:59:03.233Z,28.50
2018-05-14T13:01:30.666Z,27.87
2018-05-14T13:03:58.116Z,27.20
2018-05-14T13:06:26.322Z,24.45
2018-05-14T13:08:54.619Z,27.97
2018-05-14T13:11:22.065Z,26.70
2018-05-14T13:13:49.498Z,28.13
2018-05-14T13:16:16.947Z,31.23
2018-05-14T13:18:45.176Z,29.87
2018-05-14T13:21:12.638Z,30.63
2018-05-14T13:23:40.092Z,34.00
2018-05-14T13:26:07.549Z,35.13
2018-05-14T13:28:35.014Z,30.57
2018-05-14T13:31:02.449Z,29.33
2018-05-14T13:33:29.895Z,26.83
2018-05-14T13:35:57.331Z,29.57
2018-05-14T13:38:24.788Z,32.10
2018-05-14T13:40:52.239Z,28.60
2018-05-14T13:43:20.450Z,24.92
2018-05-14T13:45:47.872Z,25.00
2018-05-14T13:48:15.319Z,27.00
2018-05-14T13:50:43.519Z,24.43
2018-05-14T13:53:10.960Z,26.20
2018-05-14T13:55:38.463Z,25.10
2018-05-14T13:58:05.915Z,25.73
2018-05-14T14:00:33.362Z,22.70
2018-05-14T14:03:00.808Z,22.33
2018-05-14T14:05:28.270Z,24.40
2018-05-14T14:07:55.695Z,23.55
2018-05-14T14:10:23.906Z,24.50
2018-05-14T14:12:51.363Z,24.03
2018-05-14T14:15:18.808Z,27.33
2018-05-14T14:17:46.263Z,26.70
2018-05-14T14:20:13.713Z,26.05
2018-05-14T14:22:41.166Z,23.45
2018-05-14T14:25:08.610Z,25.40
2018-05-14T14:27:36.822Z,25.57
2018-05-14T14:30:04.263Z,27.27
2018-05-14T14:32:31.715Z,28.57
2018-05-14T14:34:59.171Z,25.80
2018-05-14T14:37:26.619Z,29.30
2018-05-14T14:39:54.836Z,30.00
2018-05-14T14:42:22.280Z,30.47
2018-05-14T14:44:49.719Z,34.03
2018-05-14T14:47:17.163Z,32.50
2018-05-14T14:49:45.367Z,29.60
2018-05-14T14:52:12.804Z,31.03
2018-05-14T14:54:41.436Z,32.57
2018-05-14T14:57:08.884Z,32.80
2018-05-14T14:59:36.358Z,31.77
2018-05-14T15:02:03.793Z,30.10
2018-05-14T15:04:31.241Z,29.90
2018-05-14T15:06:58.791Z,35.67
2018-05-14T15:09:26.144Z,28.80
2018-05-14T15:11:53.593Z,33.30
2018-05-14T15:14:21.802Z,30.13
2018-05-14T15:16:49.283Z,30.10
2018-05-14T15:19:16.738Z,34.20
2018-05-14T15:21:44.193Z,34.90
2018-05-14T15:24:11.642Z,29.80
2018-05-14T15:26:39.096Z,32.83
2018-05-14T15:29:06.555Z,38.10
2018-05-14T15:31:33.988Z,32.60
2018-05-14T15:34:01.455Z,35.10
2018-05-14T15:36:28.891Z,35.37
2018-05-14T15:38:56.340Z,38.37
2018-05-14T15:41:23.786Z,36.93
2018-05-14T15:43:51.980Z,37.10
2018-05-14T15:46:19.415Z,36.07
2018-05-14T15:48:47.652Z,35.13
2018-05-14T15:51:15.104Z,34.08
2018-05-14T15:53:42.544Z,37.63
2018-05-14T15:56:10.082Z,42.87
2018-05-14T15:58:37.451Z,36.93
2018-05-14T16:01:05.818Z,38.40
2018-05-14T16:03:33.268Z,40.63
2018-05-14T16:06:00.764Z,42.10
2018-05-14T16:08:28.213Z,43.53
2018-05-14T16:10:55.661Z,42.47
2018-05-14T16:13:23.105Z,42.55
2018-05-14T16:15:50.542Z,39.50
2018-05-14T16:18:18.764Z,39.33
2018-05-14T16:20:46.236Z,36.97
2018-05-14T16:23:14.587Z,36.17
2018-05-14T16:25:42.039Z,37.40
2018-05-14T16:28:09.479Z,34.00
2018-05-14T16:30:36.936Z,36.30
2018-05-14T16:33:04.378Z,33.37
2018-05-14T16:35:32.600Z,40.30
2018-05-14T16:38:00.049Z,35.67
2018-05-14T16:40:27.489Z,38.60
2018-05-14T16:42:54.919Z,36.57
2018-05-14T16:45:23.136Z,43.57
2018-05-14T16:47:50.574Z,38.93
2018-05-14T16:50:18.046Z,42.70
2018-05-14T16:52:46.239Z,46.00
2018-05-14T16:55:13.664Z,43.20
2018-05-14T16:57:41.188Z,43.50
2018-05-14T17:00:09.323Z,41.00
2018-05-14T17:02:36.763Z,44.40
2018-05-14T17:05:04.250Z,42.70
2018-05-14T17:07:31.683Z,44.57
2018-05-14T17:09:59.136Z,41.43
2018-05-14T17:12:26.583Z,42.93
2018-05-14T17:14:54.021Z,43.27
2018-05-14T17:17:22.222Z,43.53
2018-05-14T17:19:49.664Z,41.40
2018-05-14T17:22:17.866Z,45.43
2018-05-14T17:24:45.317Z,44.77
2018-05-14T17:27:12.768Z,47.33
2018-05-14T17:29:40.210Z,42.43
2018-05-14T17:32:07.651Z,49.37
2018-05-14T17:34:35.876Z,45.60
2018-05-14T17:37:03.311Z,45.10
2018-05-14T17:39:30.768Z,43.37
2018-05-14T17:41:58.227Z,47.03
2018-05-14T17:44:25.667Z,42.30
2018-05-14T17:46:53.893Z,43.30
2018-05-14T17:49:21.328Z,44.43
2018-05-14T17:51:48.797Z,46.93
2018-05-14T17:54:16.245Z,46.50
2018-05-14T17:56:43.696Z,42.90
2018-05-14T17:59:11.145Z,44.27
2018-05-14T18:01:38.587Z,45.93
2018-05-14T18:04:06.792Z,44.03
2018-05-14T18:06:40.619Z,51.13
2018-05-14T18:09:08.059Z,46.13
2018-05-14T18:11:35.503Z,44.63
2018-05-14T18:14:03.876Z,45.70
2018-05-14T18:16:31.334Z,53.33
2018-05-14T18:18:58.759Z,45.07
2018-05-14T18:21:32.596Z,40.13
2018-05-14T18:24:00.103Z,36.00
2018-05-14T18:26:33.372Z,40.40
2018-05-14T18:29:05.673Z,38.07
2018-05-14T18:31:33.118Z,39.77
2018-05-14T18:34:06.165Z,39.87
2018-05-14T18:36:33.618Z,42.40
2018-05-14T18:39:01.119Z,41.77
2018-05-14T18:41:28.799Z,47.20
2018-05-14T18:43:56.279Z,45.03
2018-05-14T18:46:24.503Z,47.23
2018-05-14T18:48:51.958Z,42.90
2018-05-14T18:51:19.401Z,46.50
2018-05-14T18:53:46.866Z,44.80
2018-05-14T18:56:14.331Z,45.73
2018-05-14T18:58:41.792Z,41.55
2018-05-14T19:01:09.249Z,45.07
2018-05-14T19:03:36.692Z,44.40
2018-05-14T19:06:04.155Z,45.00
2018-05-14T19:08:31.603Z,44.25
2018-05-14T19:11:04.831Z,44.80
2018-05-14T19:13:32.265Z,41.87
2018-05-14T19:16:05.505Z,42.80
2018-05-14T19:18:33.764Z,54.17
2018-05-14T19:21:01.176Z,51.10
2018-05-14T19:23:34.338Z,43.50
2018-05-14T19:26:01.799Z,44.33
2018-05-14T19:28:35.744Z,48.67
2018-05-14T19:31:03.201Z,48.40
2018-05-14T19:33:36.395Z,44.53
2018-05-14T19:36:03.831Z,44.08
2018-05-14T19:38:31.270Z,41.17
2018-05-14T19:40:59.483Z,44.43
2018-05-14T19:46:58.603Z,44.83
2018-05-14T19:49:26.050Z,45.23
2018-05-14T19:51:53.538Z,46.13
2018-05-14T19:54:20.987Z,42.63
2018-05-14T19:56:48.447Z,42.42
2018-05-14T19:59:15.895Z,43.50
2018-05-14T20:01:43.359Z,42.93
2018-05-14T20:04:10.914Z,41.53
2018-05-14T20:06:38.360Z,41.97
2018-05-14T20:09:05.797Z,39.87
2018-05-14T20:11:33.283Z,43.70
2018-05-14T20:14:00.731Z,51.57
2018-05-14T20:16:28.167Z,52.17
2018-05-14T20:18:55.623Z,45.83
2018-05-14T20:21:23.071Z,45.60
2018-05-14T20:23:50.513Z,45.57
2018-05-14T20:26:18.731Z,42.33
2018-05-14T20:28:46.191Z,39.07
2018-05-14T20:31:13.719Z,35.70
2018-05-14T20:33:41.926Z,38.33
2018-05-14T20:36:09.379Z,43.17
2018-05-14T20:38:36.827Z,41.03
2018-05-14T20:41:04.284Z,41.70
2018-05-14T20:43:31.760Z,41.57
2018-05-14T20:45:59.208Z,41.67
2018-05-14T20:48:26.647Z,38.73
2018-05-14T20:50:54.090Z,42.53
2018-05-14T20:53:21.548Z,39.80
2018-05-14T20:55:49.764Z,46.87
2018-05-14T20:58:17.215Z,44.30
2018-05-14T21:00:44.659Z,45.57
2018-05-14T21:03:12.148Z,44.03
2018-05-14T21:05:39.613Z,46.77
2018-05-14T21:08:07.051Z,45.40
2018-05-14T21:10:34.478Z,45.03
2018-05-14T21:13:01.923Z,41.83
2018-05-14T21:15:30.140Z,41.00
2018-05-14T21:17:57.590Z,43.97
2018-05-14T21:20:25.032Z,43.93
2018-05-14T21:22:52.489Z,43.20
2018-05-14T21:25:21.390Z,42.70
2018-05-14T21:27:48.828Z,44.37
2018-05-14T21:30:16.284Z,41.90
2018-05-14T21:32:43.711Z,43.77
2018-05-14T21:35:11.969Z,42.63
2018-05-14T21:37:39.413Z,42.42
2018-05-14T21:40:06.850Z,38.93
2018-05-14T21:42:34.278Z,40.90
2018-05-14T21:45:01.726Z,41.57
2018-05-14T21:47:30.439Z,40.70
2018-05-14T21:49:57.881Z,35.93
2018-05-14T21:52:25.318Z,36.83
2018-05-14T21:54:53.531Z,36.30
2018-05-14T21:57:20.977Z,34.37
2018-05-14T21:59:48.428Z,32.90
2018-05-14T22:02:15.881Z,32.77
2018-05-14T22:04:44.104Z,33.83
2018-05-14T22:07:11.556Z,35.10
2018-05-14T22:09:40.550Z,34.00
2018-05-14T22:12:07.999Z,36.40
2018-05-14T22:14:35.438Z,36.23
2018-05-14T22:17:02.887Z,38.67
2018-05-14T22:19:30.338Z,30.57
2018-05-14T22:21:57.784Z,31.73
2018-05-14T22:24:25.998Z,39.33
2018-05-14T22:26:53.436Z,31.27
2018-05-14T22:29:20.871Z,31.03
2018-05-14T22:31:49.374Z,33.13
2018-05-14T22:34:16.823Z,36.00
2018-05-14T22:36:44.305Z,36.43
2018-05-14T22:39:11.752Z,38.60
2018-05-14T22:41:39.187Z,33.80
2018-05-14T22:44:07.495Z,34.07
2018-05-14T22:46:34.910Z,36.37
2018-05-14T22:49:03.114Z,34.13
2018-05-14T22:51:30.556Z,32.33
2018-05-14T22:53:59.480Z,31.77
2018-05-14T22:56:26.934Z,34.07
2018-05-14T22:58:54.376Z,30.50
2018-05-14T23:01:21.818Z,29.97
2018-05-14T23:03:49.264Z,31.43
2018-05-14T23:06:17.479Z,36.53
2018-05-14T23:08:44.920Z,36.93
2018-05-14T23:11:19.717Z,34.47
2018-05-14T23:13:47.257Z,37.63
2018-05-14T23:16:14.712Z,32.33
2018-05-14T23:18:42.150Z,33.13
2018-05-14T23:21:09.600Z,34.17
2018-05-14T23:23:37.054Z,35.30
2018-05-14T23:26:04.512Z,33.67
2018-05-14T23:28:31.944Z,32.00
2018-05-14T23:30:59.397Z,32.93
2018-05-14T23:33:27.595Z,32.37
2018-05-14T23:35:55.054Z,33.03
2018-05-14T23:38:22.496Z,33.30
2018-05-14T23:40:50.707Z,33.90
2018-05-14T23:43:18.164Z,28.73
2018-05-14T23:45:45.630Z,33.63
2018-05-14T23:48:13.052Z,30.23
2018-05-14T23:50:40.496Z,28.40
2018-05-14T23:53:07.950Z,30.47
2018-05-14T23:55:36.159Z,32.83
2018-05-14T23:58:03.596Z,33.37
